sensor_id;sensor_type;location;lat;lon;timestamp;pressure;altitude;pressure_sealevel;temperature;humidity
6090;BME280;3073;42.660;23.316;2023-03-11T00:01:15;92773.09;;;10.49;100.00
6090;BME280;3073;42.660;23.316;2023-03-11T00:03:42;92753.66;;;10.53;100.00
6090;BME280;3073;42.660;23.316;2023-03-11T00:06:09;92777.22;;;10.45;100.00
6090;BME280;3073;42.660;23.316;2023-03-11T00:08:36;92762.63;;;10.32;100.00
6090;BME280;3073;42.660;23.316;2023-03-11T00:11:05;92743.75;;;10.14;100.00
6090;BME280;3073;42.660;23.316;2023-03-11T00:13:33;92746.47;;;9.99;100.00
6090;BME280;3073;42.660;23.316;2023-03-11T00:16:01;92734.88;;;9.69;100.00
6090;BME280;3073;42.660;23.316;2023-03-11T00:18:29;92728.28;;;9.68;100.00
6090;BME280;3073;42.660;23.316;2023-03-11T00:20:57;92719.41;;;9.42;100.00
6090;BME280;3073;42.660;23.316;2023-03-11T00:23:25;92724.13;;;9.54;100.00
6090;BME280;3073;42.660;23.316;2023-03-11T00:25:52;92729.88;;;9.41;100.00
6090;BME280;3073;42.660;23.316;2023-03-11T00:28:20;92737.66;;;9.49;100.00
6090;BME280;3073;42.660;23.316;2023-03-11T00:30:50;92733.59;;;9.48;100.00
6090;BME280;3073;42.660;23.316;2023-03-11T00:33:17;92729.56;;;9.23;100.00
6090;BME280;3073;42.660;23.316;2023-03-11T00:35:44;92737.34;;;9.32;100.00
6090;BME280;3073;42.660;23.316;2023-03-11T00:38:12;92730.25;;;9.29;100.00
6090;BME280;3073;42.660;23.316;2023-03-11T00:40:40;92737.13;;;9.28;100.00
6090;BME280;3073;42.660;23.316;2023-03-11T00:43:06;92736.97;;;9.20;100.00
6090;BME280;3073;42.660;23.316;2023-03-11T00:45:35;92724.72;;;9.22;100.00
6090;BME280;3073;42.660;23.316;2023-03-11T00:48:02;92720.72;;;9.40;100.00
6090;BME280;3073;42.660;23.316;2023-03-11T00:50:31;92722.44;;;9.44;100.00
6090;BME280;3073;42.660;23.316;2023-03-11T00:52:59;92699.00;;;9.47;100.00
6090;BME280;3073;42.660;23.316;2023-03-11T00:55:28;92694.44;;;9.44;100.00
6090;BME280;3073;42.660;23.316;2023-03-11T00:57:57;92671.75;;;9.48;100.00
6090;BME280;3073;42.660;23.316;2023-03-11T01:00:25;92681.72;;;9.44;100.00
6090;BME280;3073;42.660;23.316;2023-03-11T01:02:54;92685.31;;;9.43;100.00
6090;BME280;3073;42.660;23.316;2023-03-11T01:05:23;92681.66;;;9.49;100.00
6090;BME280;3073;42.660;23.316;2023-03-11T01:07:50;92682.09;;;9.56;100.00
6090;BME280;3073;42.660;23.316;2023-03-11T01:10:17;92682.78;;;9.43;100.00
6090;BME280;3073;42.660;23.316;2023-03-11T01:12:44;92677.03;;;9.32;100.00
6090;BME280;3073;42.660;23.316;2023-03-11T01:15:18;92672.09;;;9.41;100.00
6090;BME280;3073;42.660;23.316;2023-03-11T01:17:45;92660.84;;;9.47;100.00
6090;BME280;3073;42.660;23.316;2023-03-11T01:20:14;92656.66;;;9.56;100.00
6090;BME280;3073;42.660;23.316;2023-03-11T01:22:41;92655.75;;;9.47;100.00
6090;BME280;3073;42.660;23.316;2023-03-11T01:25:11;92646.66;;;9.60;100.00
6090;BME280;3073;42.660;23.316;2023-03-11T01:27:39;92624.72;;;9.64;100.00
6090;BME280;3073;42.660;23.316;2023-03-11T01:30:07;92632.53;;;9.67;100.00
6090;BME280;3073;42.660;23.316;2023-03-11T01:32:34;92642.94;;;9.52;100.00
6090;BME280;3073;42.660;23.316;2023-03-11T01:35:01;92625.56;;;9.41;100.00
6090;BME280;3073;42.660;23.316;2023-03-11T01:37:29;92609.97;;;9.23;100.00
6090;BME280;3073;42.660;23.316;2023-03-11T01:39:57;92616.78;;;9.28;100.00
6090;BME280;3073;42.660;23.316;2023-03-11T01:42:24;92594.81;;;9.37;100.00
6090;BME280;3073;42.660;23.316;2023-03-11T01:44:51;92582.97;;;9.46;100.00
6090;BME280;3073;42.660;23.316;2023-03-11T01:47:38;92586.28;;;9.47;100.00
6090;BME280;3073;42.660;23.316;2023-03-11T01:50:11;92587.97;;;9.32;100.00
6090;BME280;3073;42.660;23.316;2023-03-11T01:52:40;92568.94;;;9.30;100.00
6090;BME280;3073;42.660;23.316;2023-03-11T01:55:08;92578.91;;;9.26;100.00
6090;BME280;3073;42.660;23.316;2023-03-11T01:57:37;92592.09;;;9.28;100.00
6090;BME280;3073;42.660;23.316;2023-03-11T02:00:08;92620.78;;;9.34;100.00
6090;BME280;3073;42.660;23.316;2023-03-11T02:02:40;92641.25;;;9.24;100.00
6090;BME280;3073;42.660;23.316;2023-03-11T02:05:08;92628.94;;;9.31;100.00
6090;BME280;3073;42.660;23.316;2023-03-11T02:07:37;92637.56;;;9.35;100.00
6090;BME280;3073;42.660;23.316;2023-03-11T02:10:07;92645.47;;;9.34;100.00
6090;BME280;3073;42.660;23.316;2023-03-11T02:12:35;92640.19;;;9.49;100.00
6090;BME280;3073;42.660;23.316;2023-03-11T02:15:03;92648.63;;;9.44;100.00
6090;BME280;3073;42.660;23.316;2023-03-11T02:17:31;92656.28;;;9.44;100.00
6090;BME280;3073;42.660;23.316;2023-03-11T02:20:11;92656.34;;;9.39;100.00
6090;BME280;3073;42.660;23.316;2023-03-11T02:22:41;92659.38;;;9.41;100.00
6090;BME280;3073;42.660;23.316;2023-03-11T02:25:16;92677.09;;;9.27;100.00
6090;BME280;3073;42.660;23.316;2023-03-11T02:27:48;92670.81;;;9.44;100.00
6090;BME280;3073;42.660;23.316;2023-03-11T02:30:18;92671.63;;;9.39;100.00
6090;BME280;3073;42.660;23.316;2023-03-11T02:32:46;92669.13;;;9.34;100.00
6090;BME280;3073;42.660;23.316;2023-03-11T02:35:14;92670.09;;;9.38;100.00
6090;BME280;3073;42.660;23.316;2023-03-11T02:37:45;92663.22;;;9.39;100.00
6090;BME280;3073;42.660;23.316;2023-03-11T02:40:34;92662.53;;;9.33;100.00
6090;BME280;3073;42.660;23.316;2023-03-11T02:43:06;92659.69;;;9.35;100.00
6090;BME280;3073;42.660;23.316;2023-03-11T02:45:34;92667.09;;;9.12;100.00
6090;BME280;3073;42.660;23.316;2023-03-11T02:48:01;92663.13;;;9.25;100.00
6090;BME280;3073;42.660;23.316;2023-03-11T02:50:30;92683.59;;;9.15;100.00
6090;BME280;3073;42.660;23.316;2023-03-11T02:52:58;92685.91;;;9.35;100.00
6090;BME280;3073;42.660;23.316;2023-03-11T02:55:25;92686.16;;;9.57;100.00
6090;BME280;3073;42.660;23.316;2023-03-11T02:57:52;92691.00;;;9.96;100.00
6090;BME280;3073;42.660;23.316;2023-03-11T03:00:21;92690.28;;;10.28;100.00
6090;BME280;3073;42.660;23.316;2023-03-11T03:02:47;92691.47;;;10.36;100.00
6090;BME280;3073;42.660;23.316;2023-03-11T03:05:17;92683.28;;;10.52;100.00
6090;BME280;3073;42.660;23.316;2023-03-11T03:07:45;92682.47;;;10.57;100.00
6090;BME280;3073;42.660;23.316;2023-03-11T03:10:13;92688.25;;;10.76;100.00
6090;BME280;3073;42.660;23.316;2023-03-11T03:12:40;92688.34;;;10.71;100.00
6090;BME280;3073;42.660;23.316;2023-03-11T03:15:08;92684.38;;;10.78;100.00
6090;BME280;3073;42.660;23.316;2023-03-11T03:17:37;92687.13;;;10.68;100.00
6090;BME280;3073;42.660;23.316;2023-03-11T03:20:07;92687.63;;;10.84;100.00
6090;BME280;3073;42.660;23.316;2023-03-11T03:22:37;92680.25;;;10.82;100.00
6090;BME280;3073;42.660;23.316;2023-03-11T03:25:05;92692.53;;;10.80;100.00
6090;BME280;3073;42.660;23.316;2023-03-11T03:27:32;92691.78;;;10.94;100.00
6090;BME280;3073;42.660;23.316;2023-03-11T03:29:59;92687.44;;;10.94;100.00
6090;BME280;3073;42.660;23.316;2023-03-11T03:32:26;92698.78;;;11.02;100.00
6090;BME280;3073;42.660;23.316;2023-03-11T03:34:55;92698.88;;;10.97;100.00
6090;BME280;3073;42.660;23.316;2023-03-11T03:37:24;92688.00;;;11.05;100.00
6090;BME280;3073;42.660;23.316;2023-03-11T03:39:51;92690.09;;;11.03;100.00
6090;BME280;3073;42.660;23.316;2023-03-11T03:42:21;92672.03;;;10.85;100.00
6090;BME280;3073;42.660;23.316;2023-03-11T03:44:49;92680.63;;;10.90;100.00
6090;BME280;3073;42.660;23.316;2023-03-11T03:47:17;92673.84;;;10.99;100.00
6090;BME280;3073;42.660;23.316;2023-03-11T03:49:45;92689.72;;;11.09;100.00
6090;BME280;3073;42.660;23.316;2023-03-11T03:52:13;92674.41;;;11.09;100.00
6090;BME280;3073;42.660;23.316;2023-03-11T03:54:41;92674.88;;;10.98;100.00
6090;BME280;3073;42.660;23.316;2023-03-11T03:57:08;92665.16;;;11.00;100.00
6090;BME280;3073;42.660;23.316;2023-03-11T03:59:34;92665.53;;;11.07;100.00
6090;BME280;3073;42.660;23.316;2023-03-11T04:02:01;92660.81;;;11.00;100.00
6090;BME280;3073;42.660;23.316;2023-03-11T04:04:28;92663.63;;;10.99;100.00
6090;BME280;3073;42.660;23.316;2023-03-11T04:06:55;92678.19;;;10.98;100.00
6090;BME280;3073;42.660;23.316;2023-03-11T04:09:24;92670.63;;;10.93;100.00
6090;BME280;3073;42.660;23.316;2023-03-11T04:11:51;92671.19;;;10.90;100.00
6090;BME280;3073;42.660;23.316;2023-03-11T04:14:38;92669.31;;;10.96;100.00
6090;BME280;3073;42.660;23.316;2023-03-11T04:17:05;92675.16;;;10.96;100.00
6090;BME280;3073;42.660;23.316;2023-03-11T04:19:32;92679.97;;;10.98;100.00
6090;BME280;3073;42.660;23.316;2023-03-11T04:21:58;92681.78;;;10.83;100.00
6090;BME280;3073;42.660;23.316;2023-03-11T04:24:27;92684.78;;;10.85;100.00
6090;BME280;3073;42.660;23.316;2023-03-11T04:26:54;92693.22;;;11.00;100.00
6090;BME280;3073;42.660;23.316;2023-03-11T04:29:20;92686.69;;;10.94;100.00
6090;BME280;3073;42.660;23.316;2023-03-11T04:31:47;92681.19;;;10.87;100.00
6090;BME280;3073;42.660;23.316;2023-03-11T04:34:14;92668.88;;;10.75;100.00
6090;BME280;3073;42.660;23.316;2023-03-11T04:36:41;92681.09;;;10.92;100.00
6090;BME280;3073;42.660;23.316;2023-03-11T04:39:08;92677.13;;;10.85;100.00
6090;BME280;3073;42.660;23.316;2023-03-11T04:41:36;92679.50;;;10.96;100.00
6090;BME280;3073;42.660;23.316;2023-03-11T04:44:03;92690.00;;;11.08;100.00
6090;BME280;3073;42.660;23.316;2023-03-11T04:46:30;92693.47;;;10.98;100.00
6090;BME280;3073;42.660;23.316;2023-03-11T04:48:57;92683.28;;;10.98;100.00
6090;BME280;3073;42.660;23.316;2023-03-11T04:51:24;92691.31;;;10.92;100.00
6090;BME280;3073;42.660;23.316;2023-03-11T04:53:51;92683.84;;;10.95;100.00
6090;BME280;3073;42.660;23.316;2023-03-11T04:56:18;92691.22;;;10.97;100.00
6090;BME280;3073;42.660;23.316;2023-03-11T04:58:46;92689.63;;;11.01;100.00
6090;BME280;3073;42.660;23.316;2023-03-11T05:01:14;92704.44;;;10.99;100.00
6090;BME280;3073;42.660;23.316;2023-03-11T05:03:41;92702.56;;;11.04;100.00
6090;BME280;3073;42.660;23.316;2023-03-11T05:06:08;92704.75;;;11.11;100.00
6090;BME280;3073;42.660;23.316;2023-03-11T05:08:35;92710.72;;;11.20;100.00
6090;BME280;3073;42.660;23.316;2023-03-11T05:11:02;92711.84;;;11.14;100.00
6090;BME280;3073;42.660;23.316;2023-03-11T05:13:29;92717.63;;;11.19;100.00
6090;BME280;3073;42.660;23.316;2023-03-11T05:15:57;92718.00;;;11.13;100.00
6090;BME280;3073;42.660;23.316;2023-03-11T05:18:24;92724.97;;;11.21;100.00
6090;BME280;3073;42.660;23.316;2023-03-11T05:20:50;92726.38;;;11.00;100.00
6090;BME280;3073;42.660;23.316;2023-03-11T05:23:17;92727.06;;;11.19;100.00
6090;BME280;3073;42.660;23.316;2023-03-11T05:25:44;92732.72;;;11.02;100.00
6090;BME280;3073;42.660;23.316;2023-03-11T05:28:12;92732.44;;;11.04;100.00
6090;BME280;3073;42.660;23.316;2023-03-11T05:30:39;92745.88;;;11.09;100.00
6090;BME280;3073;42.660;23.316;2023-03-11T05:33:08;92742.94;;;11.16;100.00
6090;BME280;3073;42.660;23.316;2023-03-11T05:35:35;92745.56;;;11.11;100.00
6090;BME280;3073;42.660;23.316;2023-03-11T05:38:02;92744.66;;;11.20;100.00
6090;BME280;3073;42.660;23.316;2023-03-11T05:40:29;92728.28;;;11.08;100.00
6090;BME280;3073;42.660;23.316;2023-03-11T05:42:56;92747.09;;;11.12;100.00
6090;BME280;3073;42.660;23.316;2023-03-11T05:45:23;92753.41;;;11.14;100.00
6090;BME280;3073;42.660;23.316;2023-03-11T05:47:51;92744.63;;;11.07;100.00
6090;BME280;3073;42.660;23.316;2023-03-11T05:50:19;92736.59;;;11.00;100.00
6090;BME280;3073;42.660;23.316;2023-03-11T05:52:46;92753.97;;;10.98;100.00
6090;BME280;3073;42.660;23.316;2023-03-11T05:55:13;92758.13;;;10.94;100.00
6090;BME280;3073;42.660;23.316;2023-03-11T05:57:40;92766.00;;;10.78;100.00
6090;BME280;3073;42.660;23.316;2023-03-11T06:00:09;92777.28;;;10.91;100.00
6090;BME280;3073;42.660;23.316;2023-03-11T06:02:37;92780.41;;;10.88;100.00
6090;BME280;3073;42.660;23.316;2023-03-11T06:05:05;92785.66;;;10.78;100.00
6090;BME280;3073;42.660;23.316;2023-03-11T06:07:35;92787.72;;;10.76;100.00
6090;BME280;3073;42.660;23.316;2023-03-11T06:10:02;92791.34;;;10.89;100.00
6090;BME280;3073;42.660;23.316;2023-03-11T06:12:32;92790.41;;;10.84;100.00
6090;BME280;3073;42.660;23.316;2023-03-11T06:14:59;92791.91;;;10.85;100.00
6090;BME280;3073;42.660;23.316;2023-03-11T06:17:26;92795.09;;;10.77;100.00
6090;BME280;3073;42.660;23.316;2023-03-11T06:19:53;92792.53;;;10.64;100.00
6090;BME280;3073;42.660;23.316;2023-03-11T06:22:20;92791.97;;;10.67;100.00
6090;BME280;3073;42.660;23.316;2023-03-11T06:24:51;92797.41;;;10.60;100.00
6090;BME280;3073;42.660;23.316;2023-03-11T06:27:19;92787.91;;;10.47;100.00
6090;BME280;3073;42.660;23.316;2023-03-11T06:29:51;92783.75;;;10.51;100.00
6090;BME280;3073;42.660;23.316;2023-03-11T06:32:19;92795.19;;;10.72;100.00
6090;BME280;3073;42.660;23.316;2023-03-11T06:34:50;92787.44;;;10.77;100.00
6090;BME280;3073;42.660;23.316;2023-03-11T06:37:18;92785.75;;;10.73;100.00
6090;BME280;3073;42.660;23.316;2023-03-11T06:39:46;92791.91;;;10.85;100.00
6090;BME280;3073;42.660;23.316;2023-03-11T06:42:14;92799.53;;;11.04;100.00
6090;BME280;3073;42.660;23.316;2023-03-11T06:44:41;92796.06;;;11.14;100.00
6090;BME280;3073;42.660;23.316;2023-03-11T06:47:09;92805.53;;;11.13;100.00
6090;BME280;3073;42.660;23.316;2023-03-11T06:49:37;92802.38;;;11.03;100.00
6090;BME280;3073;42.660;23.316;2023-03-11T06:52:07;92799.56;;;10.85;100.00
6090;BME280;3073;42.660;23.316;2023-03-11T06:54:35;92799.63;;;10.99;100.00
6090;BME280;3073;42.660;23.316;2023-03-11T06:57:05;92809.16;;;10.94;100.00
6090;BME280;3073;42.660;23.316;2023-03-11T06:59:34;92804.91;;;11.03;100.00
6090;BME280;3073;42.660;23.316;2023-03-11T07:02:03;92805.78;;;11.12;100.00
6090;BME280;3073;42.660;23.316;2023-03-11T07:04:30;92813.53;;;11.07;100.00
6090;BME280;3073;42.660;23.316;2023-03-11T07:06:57;92806.09;;;10.92;100.00
6090;BME280;3073;42.660;23.316;2023-03-11T07:09:25;92806.66;;;10.89;100.00
6090;BME280;3073;42.660;23.316;2023-03-11T07:11:54;92812.78;;;10.88;100.00
6090;BME280;3073;42.660;23.316;2023-03-11T07:14:23;92814.63;;;10.68;100.00
6090;BME280;3073;42.660;23.316;2023-03-11T07:16:52;92802.06;;;10.72;100.00
6090;BME280;3073;42.660;23.316;2023-03-11T07:19:19;92795.69;;;10.88;100.00
6090;BME280;3073;42.660;23.316;2023-03-11T07:21:47;92791.88;;;11.04;100.00
6090;BME280;3073;42.660;23.316;2023-03-11T07:24:15;92797.91;;;11.27;100.00
6090;BME280;3073;42.660;23.316;2023-03-11T07:26:42;92795.44;;;11.35;100.00
6090;BME280;3073;42.660;23.316;2023-03-11T07:29:09;92793.47;;;11.60;100.00
6090;BME280;3073;42.660;23.316;2023-03-11T07:31:39;92786.56;;;11.47;100.00
6090;BME280;3073;42.660;23.316;2023-03-11T07:34:14;92770.97;;;11.62;100.00
6090;BME280;3073;42.660;23.316;2023-03-11T07:36:41;92775.06;;;11.76;100.00
6090;BME280;3073;42.660;23.316;2023-03-11T07:39:12;92768.16;;;11.91;100.00
6090;BME280;3073;42.660;23.316;2023-03-11T07:41:39;92762.06;;;12.00;100.00
6090;BME280;3073;42.660;23.316;2023-03-11T07:44:05;92755.47;;;12.21;100.00
6090;BME280;3073;42.660;23.316;2023-03-11T07:46:32;92757.91;;;12.40;100.00
6090;BME280;3073;42.660;23.316;2023-03-11T07:49:00;92749.34;;;12.45;100.00
6090;BME280;3073;42.660;23.316;2023-03-11T07:51:30;92758.94;;;12.61;100.00
6090;BME280;3073;42.660;23.316;2023-03-11T07:53:59;92748.13;;;12.64;100.00
6090;BME280;3073;42.660;23.316;2023-03-11T07:56:32;92747.00;;;12.70;100.00
6090;BME280;3073;42.660;23.316;2023-03-11T07:59:01;92743.19;;;12.90;100.00
6090;BME280;3073;42.660;23.316;2023-03-11T08:01:31;92735.41;;;13.65;100.00
6090;BME280;3073;42.660;23.316;2023-03-11T08:04:02;92727.50;;;14.78;100.00
6090;BME280;3073;42.660;23.316;2023-03-11T08:06:32;92718.34;;;16.12;90.02
6090;BME280;3073;42.660;23.316;2023-03-11T08:09:02;92719.88;;;16.54;77.81
6090;BME280;3073;42.660;23.316;2023-03-11T08:11:30;92720.00;;;15.66;71.41
6090;BME280;3073;42.660;23.316;2023-03-11T08:13:57;92712.84;;;14.87;72.63
6090;BME280;3073;42.660;23.316;2023-03-11T08:16:24;92699.69;;;15.73;72.91
6090;BME280;3073;42.660;23.316;2023-03-11T08:18:52;92707.22;;;15.78;68.38
6090;BME280;3073;42.660;23.316;2023-03-11T08:21:21;92698.59;;;16.04;69.88
6090;BME280;3073;42.660;23.316;2023-03-11T08:23:49;92687.84;;;16.43;67.43
6090;BME280;3073;42.660;23.316;2023-03-11T08:26:18;92684.81;;;16.62;65.01
6090;BME280;3073;42.660;23.316;2023-03-11T08:28:46;92680.13;;;17.21;63.58
6090;BME280;3073;42.660;23.316;2023-03-11T08:31:14;92678.41;;;17.25;64.05
6090;BME280;3073;42.660;23.316;2023-03-11T08:33:41;92677.72;;;16.38;64.01
6090;BME280;3073;42.660;23.316;2023-03-11T08:36:08;92672.03;;;15.70;67.47
6090;BME280;3073;42.660;23.316;2023-03-11T08:38:35;92677.72;;;16.38;66.66
6090;BME280;3073;42.660;23.316;2023-03-11T08:41:05;92668.03;;;16.76;63.98
6090;BME280;3073;42.660;23.316;2023-03-11T08:43:33;92662.91;;;16.88;62.15
6090;BME280;3073;42.660;23.316;2023-03-11T08:46:01;92665.75;;;17.32;62.39
6090;BME280;3073;42.660;23.316;2023-03-11T08:48:28;92662.81;;;17.21;59.92
6090;BME280;3073;42.660;23.316;2023-03-11T08:50:55;92665.34;;;17.66;59.38
6090;BME280;3073;42.660;23.316;2023-03-11T08:53:22;92655.03;;;17.66;59.53
6090;BME280;3073;42.660;23.316;2023-03-11T08:55:50;92657.31;;;17.95;59.72
6090;BME280;3073;42.660;23.316;2023-03-11T08:58:19;92657.97;;;17.92;57.92
6090;BME280;3073;42.660;23.316;2023-03-11T09:00:46;92652.00;;;17.40;59.23
6090;BME280;3073;42.660;23.316;2023-03-11T09:03:12;92649.84;;;17.90;58.63
6090;BME280;3073;42.660;23.316;2023-03-11T09:05:40;92654.94;;;18.42;57.26
6090;BME280;3073;42.660;23.316;2023-03-11T09:08:07;92649.38;;;16.91;57.50
6090;BME280;3073;42.660;23.316;2023-03-11T09:10:33;92647.47;;;17.49;59.14
6090;BME280;3073;42.660;23.316;2023-03-11T09:13:00;92653.63;;;17.44;59.55
6090;BME280;3073;42.660;23.316;2023-03-11T09:15:28;92645.53;;;17.22;59.27
6090;BME280;3073;42.660;23.316;2023-03-11T09:17:55;92657.97;;;16.30;62.78
6090;BME280;3073;42.660;23.316;2023-03-11T09:20:27;92647.63;;;15.47;67.23
6090;BME280;3073;42.660;23.316;2023-03-11T09:22:54;92655.13;;;14.85;72.39
6090;BME280;3073;42.660;23.316;2023-03-11T09:25:22;92641.75;;;14.71;76.46
6090;BME280;3073;42.660;23.316;2023-03-11T09:27:48;92648.28;;;14.51;81.09
6090;BME280;3073;42.660;23.316;2023-03-11T09:30:16;92639.44;;;16.04;74.72
6090;BME280;3073;42.660;23.316;2023-03-11T09:32:44;92629.91;;;15.83;72.88
6090;BME280;3073;42.660;23.316;2023-03-11T09:35:12;92630.31;;;17.41;67.80
6090;BME280;3073;42.660;23.316;2023-03-11T09:37:40;92627.03;;;17.92;64.95
6090;BME280;3073;42.660;23.316;2023-03-11T09:40:09;92619.94;;;18.45;60.96
6090;BME280;3073;42.660;23.316;2023-03-11T09:42:42;92622.34;;;17.70;58.75
6090;BME280;3073;42.660;23.316;2023-03-11T09:45:14;92616.78;;;17.44;61.67
6090;BME280;3073;42.660;23.316;2023-03-11T09:47:59;92619.56;;;18.03;57.44
6090;BME280;3073;42.660;23.316;2023-03-11T09:50:32;92629.28;;;18.77;55.53
6090;BME280;3073;42.660;23.316;2023-03-11T09:53:25;92636.25;;;18.33;55.38
6090;BME280;3073;42.660;23.316;2023-03-11T09:55:55;92625.97;;;16.52;61.11
6090;BME280;3073;42.660;23.316;2023-03-11T09:58:34;92614.63;;;17.22;61.24
6090;BME280;3073;42.660;23.316;2023-03-11T10:01:02;92624.59;;;17.35;56.77
6090;BME280;3073;42.660;23.316;2023-03-11T10:03:39;92626.88;;;17.37;56.33
6090;BME280;3073;42.660;23.316;2023-03-11T10:06:13;92614.63;;;17.22;56.41
6090;BME280;3073;42.660;23.316;2023-03-11T10:08:44;92611.94;;;16.49;57.53
6090;BME280;3073;42.660;23.316;2023-03-11T10:11:26;92644.75;;;16.52;57.34
6090;BME280;3073;42.660;23.316;2023-03-11T10:14:03;92632.13;;;15.35;60.86
6090;BME280;3073;42.660;23.316;2023-03-11T10:16:37;92648.34;;;14.89;63.45
6090;BME280;3073;42.660;23.316;2023-03-11T10:19:13;92651.81;;;15.31;60.96
6090;BME280;3073;42.660;23.316;2023-03-11T10:21:49;92645.41;;;15.08;62.59
6090;BME280;3073;42.660;23.316;2023-03-11T10:24:39;92655.75;;;14.90;62.46
6090;BME280;3073;42.660;23.316;2023-03-11T10:27:12;92640.13;;;14.58;62.34
6090;BME280;3073;42.660;23.316;2023-03-11T10:29:46;92645.84;;;14.63;62.99
6090;BME280;3073;42.660;23.316;2023-03-11T10:32:16;92646.75;;;15.14;64.35
6090;BME280;3073;42.660;23.316;2023-03-11T10:34:50;92647.44;;;15.81;60.25
6090;BME280;3073;42.660;23.316;2023-03-11T10:37:24;92638.03;;;16.27;59.70
6090;BME280;3073;42.660;23.316;2023-03-11T10:39:52;92635.78;;;16.58;57.77
6090;BME280;3073;42.660;23.316;2023-03-11T10:42:22;92644.56;;;14.86;59.10
6090;BME280;3073;42.660;23.316;2023-03-11T10:44:52;92633.16;;;14.58;60.91
6090;BME280;3073;42.660;23.316;2023-03-11T10:47:22;92633.69;;;14.89;61.34
6090;BME280;3073;42.660;23.316;2023-03-11T10:49:54;92642.53;;;14.63;62.37
6090;BME280;3073;42.660;23.316;2023-03-11T10:52:23;92653.69;;;14.58;63.29
6090;BME280;3073;42.660;23.316;2023-03-11T10:55:00;92660.69;;;14.40;63.57
6090;BME280;3073;42.660;23.316;2023-03-11T10:57:32;92682.63;;;13.56;70.55
6090;BME280;3073;42.660;23.316;2023-03-11T11:00:02;92667.56;;;13.15;82.18
6090;BME280;3073;42.660;23.316;2023-03-11T11:02:39;92665.03;;;13.15;86.05
6090;BME280;3073;42.660;23.316;2023-03-11T11:05:28;92663.31;;;13.58;82.92
6090;BME280;3073;42.660;23.316;2023-03-11T11:08:11;92652.53;;;13.96;78.61
6090;BME280;3073;42.660;23.316;2023-03-11T11:10:49;92661.19;;;15.27;72.31
6090;BME280;3073;42.660;23.316;2023-03-11T11:13:19;92646.94;;;16.29;63.77
6090;BME280;3073;42.660;23.316;2023-03-11T11:15:54;92645.84;;;15.98;64.25
6090;BME280;3073;42.660;23.316;2023-03-11T11:18:25;92643.09;;;16.15;63.01
6090;BME280;3073;42.660;23.316;2023-03-11T11:20:57;92641.66;;;16.26;63.62
6090;BME280;3073;42.660;23.316;2023-03-11T11:23:31;92636.94;;;15.74;64.34
6090;BME280;3073;42.660;23.316;2023-03-11T11:26:02;92630.25;;;15.53;66.13
6090;BME280;3073;42.660;23.316;2023-03-11T11:28:32;92639.13;;;14.88;69.75
6090;BME280;3073;42.660;23.316;2023-03-11T11:31:00;92636.22;;;14.34;80.56
6090;BME280;3073;42.660;23.316;2023-03-11T11:33:29;92632.00;;;13.78;89.92
6090;BME280;3073;42.660;23.316;2023-03-11T11:36:00;92608.50;;;13.93;99.54
6090;BME280;3073;42.660;23.316;2023-03-11T11:38:29;92607.88;;;14.14;100.00
6090;BME280;3073;42.660;23.316;2023-03-11T11:41:00;92599.56;;;14.17;97.55
6090;BME280;3073;42.660;23.316;2023-03-11T11:43:38;92601.06;;;14.26;90.38
6090;BME280;3073;42.660;23.316;2023-03-11T11:46:16;92597.09;;;14.55;84.62
6090;BME280;3073;42.660;23.316;2023-03-11T11:48:49;92590.13;;;15.02;81.80
6090;BME280;3073;42.660;23.316;2023-03-11T11:51:24;92572.31;;;15.55;72.65
6090;BME280;3073;42.660;23.316;2023-03-11T11:53:57;92565.31;;;16.18;66.71
6090;BME280;3073;42.660;23.316;2023-03-11T11:56:26;92577.16;;;17.00;62.91
6090;BME280;3073;42.660;23.316;2023-03-11T11:58:53;92572.72;;;17.25;60.26
6090;BME280;3073;42.660;23.316;2023-03-11T12:01:29;92553.75;;;16.24;56.40
6090;BME280;3073;42.660;23.316;2023-03-11T12:04:29;92565.06;;;16.43;56.26
6090;BME280;3073;42.660;23.316;2023-03-11T12:07:09;92566.31;;;16.94;55.72
6090;BME280;3073;42.660;23.316;2023-03-11T12:09:46;92573.34;;;17.58;54.15
6090;BME280;3073;42.660;23.316;2023-03-11T12:12:21;92571.19;;;18.28;52.82
6090;BME280;3073;42.660;23.316;2023-03-11T12:14:58;92564.25;;;18.16;53.16
6090;BME280;3073;42.660;23.316;2023-03-11T12:17:28;92561.22;;;16.17;53.49
6090;BME280;3073;42.660;23.316;2023-03-11T12:19:59;92554.81;;;15.69;56.08
6090;BME280;3073;42.660;23.316;2023-03-11T12:22:53;92563.28;;;15.49;57.21
6090;BME280;3073;42.660;23.316;2023-03-11T12:25:32;92569.03;;;16.53;56.04
6090;BME280;3073;42.660;23.316;2023-03-11T12:28:08;92570.72;;;16.37;56.37
6090;BME280;3073;42.660;23.316;2023-03-11T12:30:42;92566.63;;;16.24;56.73
6090;BME280;3073;42.660;23.316;2023-03-11T12:33:14;92562.66;;;15.93;57.47
6090;BME280;3073;42.660;23.316;2023-03-11T12:35:48;92570.81;;;15.25;60.07
6090;BME280;3073;42.660;23.316;2023-03-11T12:38:24;92569.84;;;16.00;61.97
6090;BME280;3073;42.660;23.316;2023-03-11T12:40:58;92574.00;;;15.72;62.58
6090;BME280;3073;42.660;23.316;2023-03-11T12:46:12;92573.16;;;14.80;64.63
6090;BME280;3073;42.660;23.316;2023-03-11T12:48:42;92562.75;;;14.30;68.71
6090;BME280;3073;42.660;23.316;2023-03-11T12:51:38;92574.97;;;14.79;69.00
6090;BME280;3073;42.660;23.316;2023-03-11T12:54:29;92576.84;;;14.62;69.20
6090;BME280;3073;42.660;23.316;2023-03-11T12:57:00;92571.63;;;14.41;70.00
6090;BME280;3073;42.660;23.316;2023-03-11T12:59:52;92581.50;;;15.06;69.66
6090;BME280;3073;42.660;23.316;2023-03-11T13:02:45;92581.28;;;15.20;66.24
6090;BME280;3073;42.660;23.316;2023-03-11T13:05:22;92585.59;;;14.99;66.89
6090;BME280;3073;42.660;23.316;2023-03-11T13:07:57;92592.44;;;15.24;67.17
6090;BME280;3073;42.660;23.316;2023-03-11T13:10:38;92596.13;;;15.43;65.84
6090;BME280;3073;42.660;23.316;2023-03-11T13:13:30;92615.00;;;14.80;65.27
6090;BME280;3073;42.660;23.316;2023-03-11T13:16:34;92624.84;;;14.70;67.35
6090;BME280;3073;42.660;23.316;2023-03-11T13:19:35;92626.03;;;14.72;71.08
6090;BME280;3073;42.660;23.316;2023-03-11T13:22:04;92633.13;;;14.84;72.43
6090;BME280;3073;42.660;23.316;2023-03-11T13:24:50;92645.72;;;14.42;75.55
6090;BME280;3073;42.660;23.316;2023-03-11T13:27:33;92643.91;;;14.34;76.53